createdAt,value
2017-05-30T00:00:07.584Z,21.65
2017-05-30T00:01:07.246Z,21.59
2017-05-30T00:02:07.903Z,21.76
2017-05-30T00:03:07.656Z,21.72
2017-05-30T00:04:07.217Z,21.74
2017-05-30T00:05:08.115Z,21.71
2017-05-30T00:06:07.558Z,21.65
2017-05-30T00:07:07.156Z,21.59
2017-05-30T00:08:07.830Z,21.64
2017-05-30T00:09:07.452Z,21.67
2017-05-30T00:10:07.141Z,21.71
2017-05-30T00:11:07.738Z,21.58
2017-05-30T00:12:07.368Z,21.45
2017-05-30T00:13:08.072Z,21.56
2017-05-30T00:14:07.679Z,21.54
2017-05-30T00:15:07.396Z,21.55
2017-05-30T00:16:08.015Z,21.41
2017-05-30T00:17:07.781Z,21.40
2017-05-30T00:18:07.505Z,21.45
2017-05-30T00:19:07.148Z,21.54
2017-05-30T00:20:07.858Z,21.42
2017-05-30T00:21:07.534Z,21.41
2017-05-30T00:22:07.082Z,21.40
2017-05-30T00:23:07.734Z,21.42
2017-05-30T00:24:07.403Z,21.49
2017-05-30T00:25:07.043Z,21.39
2017-05-30T00:26:07.743Z,21.42
2017-05-30T00:27:07.485Z,21.34
2017-05-30T00:28:07.111Z,21.27
2017-05-30T00:29:07.750Z,21.41
2017-05-30T00:30:07.461Z,21.47
2017-05-30T00:31:07.074Z,21.36
2017-05-30T00:32:07.727Z,21.24
2017-05-30T00:33:07.403Z,21.29
2017-05-30T00:34:07.050Z,21.27
2017-05-30T00:35:07.713Z,21.36
2017-05-30T00:36:07.361Z,21.18
2017-05-30T00:37:07.981Z,21.16
2017-05-30T00:38:07.629Z,21.13
2017-05-30T00:39:07.776Z,21.15
2017-05-30T00:40:07.441Z,21.22
2017-05-30T00:41:07.147Z,21.37
2017-05-30T00:42:07.765Z,21.45
2017-05-30T00:43:07.359Z,21.26
2017-05-30T00:44:07.059Z,21.32
2017-05-30T00:45:07.732Z,21.37
2017-05-30T00:46:07.366Z,21.37
2017-05-30T00:47:08.011Z,21.27
2017-05-30T00:48:07.637Z,21.19
2017-05-30T00:49:07.310Z,21.21
2017-05-30T00:50:07.997Z,21.10
2017-05-30T00:51:07.665Z,21.08
2017-05-30T00:52:07.311Z,21.25
2017-05-30T00:53:07.942Z,21.35
2017-05-30T00:54:07.643Z,21.36
2017-05-30T00:55:07.310Z,21.35
2017-05-30T00:56:07.955Z,21.35
2017-05-30T00:57:07.594Z,21.26
2017-05-30T00:58:07.208Z,21.26
2017-05-30T00:59:07.875Z,21.26
2017-05-30T01:00:07.593Z,21.30
2017-05-30T01:01:07.223Z,21.25
2017-05-30T01:02:07.873Z,21.23
2017-05-30T01:03:07.542Z,21.13
2017-05-30T01:04:07.215Z,21.20
2017-05-30T01:05:07.906Z,21.11
2017-05-30T01:06:07.581Z,21.04
2017-05-30T01:07:07.145Z,21.01
2017-05-30T01:08:07.815Z,21.12
2017-05-30T01:09:07.456Z,21.07
2017-05-30T01:10:07.160Z,21.05
2017-05-30T01:11:07.781Z,20.92
2017-05-30T01:12:07.422Z,20.94
2017-05-30T01:13:06.996Z,20.86
2017-05-30T01:14:07.715Z,20.74
2017-05-30T01:15:07.367Z,20.80
2017-05-30T01:16:08.032Z,20.83
2017-05-30T01:17:07.753Z,20.86
2017-05-30T01:18:07.482Z,20.75
2017-05-30T01:19:07.084Z,20.69
2017-05-30T01:20:07.835Z,20.80
2017-05-30T01:21:07.488Z,20.74
2017-05-30T01:22:07.056Z,20.72
2017-05-30T01:23:07.701Z,20.65
2017-05-30T01:24:07.401Z,20.60
2017-05-30T01:25:07.041Z,20.70
2017-05-30T01:26:07.700Z,20.53
2017-05-30T01:27:07.351Z,20.53
2017-05-30T01:28:08.005Z,20.53
2017-05-30T01:29:07.663Z,20.43
2017-05-30T01:30:07.333Z,20.39
2017-05-30T01:31:07.982Z,20.40
2017-05-30T01:32:07.642Z,20.30
2017-05-30T01:33:07.307Z,20.22
2017-05-30T01:34:07.956Z,20.25
2017-05-30T01:35:07.635Z,20.29
2017-05-30T01:36:07.314Z,20.35
2017-05-30T01:37:07.918Z,20.38
2017-05-30T01:38:07.544Z,20.37
2017-05-30T01:39:07.175Z,20.17
2017-05-30T01:40:07.882Z,20.18
2017-05-30T01:41:07.481Z,20.05
2017-05-30T01:42:07.136Z,20.05
2017-05-30T01:43:07.779Z,20.12
2017-05-30T01:44:07.486Z,20.19
2017-05-30T01:45:07.172Z,20.13
2017-05-30T01:46:07.789Z,20.04
2017-05-30T01:47:07.442Z,20.06
2017-05-30T01:48:07.079Z,20.03
2017-05-30T01:49:07.752Z,19.97
2017-05-30T01:50:07.429Z,19.91
2017-05-30T01:51:07.034Z,20.00
2017-05-30T01:52:07.733Z,19.85
2017-05-30T01:53:07.327Z,20.03
2017-05-30T01:54:08.012Z,19.95
2017-05-30T01:55:07.704Z,19.82
2017-05-30T01:56:07.306Z,19.84
2017-05-30T01:57:07.980Z,19.77
2017-05-30T01:58:07.655Z,19.73
2017-05-30T01:59:07.300Z,19.76
2017-05-30T02:00:08.010Z,19.81
2017-05-30T02:01:07.662Z,19.64
2017-05-30T02:02:07.258Z,19.58
2017-05-30T02:03:07.919Z,19.59
2017-05-30T02:04:07.541Z,19.53
2017-05-30T02:05:07.254Z,19.58
2017-05-30T02:06:07.882Z,19.57
2017-05-30T02:07:07.529Z,19.51
2017-05-30T02:08:07.192Z,19.47
2017-05-30T02:09:07.840Z,19.51
2017-05-30T02:10:07.509Z,19.52
2017-05-30T02:11:07.103Z,19.57
2017-05-30T02:12:07.803Z,19.58
2017-05-30T02:13:07.461Z,19.52
2017-05-30T02:14:07.261Z,19.51
2017-05-30T02:15:07.842Z,19.38
2017-05-30T02:16:07.452Z,19.30
2017-05-30T02:17:07.152Z,19.25
2017-05-30T02:18:07.874Z,19.47
2017-05-30T02:19:07.563Z,19.38
2017-05-30T02:20:07.262Z,19.36
2017-05-30T02:21:07.888Z,19.18
2017-05-30T02:22:07.519Z,19.34
2017-05-30T02:23:07.127Z,19.32
2017-05-30T02:24:07.756Z,19.40
2017-05-30T02:25:07.469Z,19.37
2017-05-30T02:26:07.067Z,19.29
2017-05-30T02:27:07.715Z,19.28
2017-05-30T02:28:07.356Z,19.23
2017-05-30T02:29:07.045Z,19.22
2017-05-30T02:30:07.751Z,19.20
2017-05-30T02:31:07.379Z,19.08
2017-05-30T02:32:07.043Z,19.12
2017-05-30T02:33:07.715Z,18.99
2017-05-30T02:34:07.351Z,18.96
2017-05-30T02:35:08.033Z,18.94
2017-05-30T02:36:07.714Z,19.05
2017-05-30T02:37:07.332Z,19.03
2017-05-30T02:38:07.973Z,19.12
2017-05-30T02:39:07.624Z,19.09
2017-05-30T02:40:07.310Z,19.23
2017-05-30T02:41:07.911Z,19.08
2017-05-30T02:42:07.543Z,19.10
2017-05-30T02:43:07.182Z,19.18
2017-05-30T02:44:07.867Z,19.11
2017-05-30T02:45:07.566Z,19.19
2017-05-30T02:46:07.167Z,19.10
2017-05-30T02:47:07.827Z,19.12
2017-05-30T02:48:07.485Z,18.92
2017-05-30T02:49:07.139Z,19.01
2017-05-30T02:50:07.808Z,18.86
2017-05-30T02:51:07.466Z,18.84
2017-05-30T02:52:07.158Z,18.67
2017-05-30T02:53:07.779Z,18.74
2017-05-30T02:54:07.446Z,18.84
2017-05-30T02:55:07.205Z,18.75
2017-05-30T02:56:07.751Z,18.68
2017-05-30T02:57:07.409Z,18.65
2017-05-30T02:58:07.040Z,18.73
2017-05-30T02:59:07.716Z,18.77
2017-05-30T03:00:07.408Z,18.73
2017-05-30T03:01:08.021Z,18.85
2017-05-30T03:02:07.646Z,18.68
2017-05-30T03:03:07.282Z,18.59
2017-05-30T03:04:07.950Z,18.65
2017-05-30T03:05:07.640Z,18.55
2017-05-30T03:06:07.333Z,18.47
2017-05-30T03:07:07.960Z,18.49
2017-05-30T03:08:07.598Z,18.60
2017-05-30T03:09:07.251Z,18.52
2017-05-30T03:10:07.928Z,18.66
2017-05-30T03:11:07.623Z,18.77
2017-05-30T03:12:07.153Z,18.76
2017-05-30T03:13:07.831Z,18.60
2017-05-30T03:14:13.003Z,18.58
2017-05-30T03:15:07.189Z,18.59
2017-05-30T03:16:07.788Z,18.54
2017-05-30T03:17:07.500Z,18.41
2017-05-30T03:18:07.260Z,18.42
2017-05-30T03:19:07.935Z,18.50
2017-05-30T03:20:07.611Z,18.42
2017-05-30T03:21:07.264Z,18.39
2017-05-30T03:22:07.895Z,18.47
2017-05-30T03:23:07.526Z,18.51
2017-05-30T03:24:07.179Z,18.46
2017-05-30T03:25:07.857Z,18.32
2017-05-30T03:26:07.447Z,18.38
2017-05-30T03:27:07.086Z,18.53
2017-05-30T03:28:07.704Z,18.49
2017-05-30T03:29:07.434Z,18.45
2017-05-30T03:30:07.102Z,18.52
2017-05-30T03:31:07.638Z,18.44
2017-05-30T03:32:07.326Z,18.42
2017-05-30T03:33:08.012Z,18.32
2017-05-30T03:34:07.650Z,18.33
2017-05-30T03:35:07.344Z,18.35
2017-05-30T03:36:07.989Z,18.42
2017-05-30T03:37:07.601Z,18.49
2017-05-30T03:38:07.250Z,18.42
2017-05-30T03:39:07.924Z,18.28
2017-05-30T03:40:07.743Z,18.33
2017-05-30T03:41:07.222Z,18.42
2017-05-30T03:42:07.898Z,18.51
2017-05-30T03:43:07.489Z,18.43
2017-05-30T03:44:07.213Z,18.32
2017-05-30T03:45:07.891Z,18.27
2017-05-30T03:46:07.500Z,18.21
2017-05-30T03:47:07.185Z,18.28
2017-05-30T03:48:07.786Z,18.32
2017-05-30T03:49:07.470Z,18.32
2017-05-30T03:50:07.123Z,18.39
2017-05-30T03:51:07.796Z,18.33
2017-05-30T03:52:07.405Z,18.40
2017-05-30T03:53:07.063Z,18.48
2017-05-30T03:54:07.749Z,18.39
2017-05-30T03:55:07.414Z,18.49
2017-05-30T03:56:07.038Z,18.31
2017-05-30T03:57:07.721Z,18.24
2017-05-30T03:58:07.318Z,18.26
2017-05-30T03:59:07.059Z,18.20
2017-05-30T04:00:07.728Z,18.24
2017-05-30T04:01:07.333Z,18.28
2017-05-30T04:02:08.078Z,18.23
2017-05-30T04:03:07.650Z,18.34
2017-05-30T04:04:07.292Z,18.30
2017-05-30T04:05:07.981Z,18.40
2017-05-30T04:06:07.658Z,18.35
2017-05-30T04:07:07.230Z,18.27
2017-05-30T04:08:07.050Z,18.26
2017-05-30T04:09:07.702Z,18.24
2017-05-30T04:10:07.491Z,18.27
2017-05-30T04:11:08.022Z,18.37
2017-05-30T04:12:07.623Z,18.34
2017-05-30T04:13:07.232Z,18.35
2017-05-30T04:14:07.950Z,18.33
2017-05-30T04:15:07.633Z,18.30
2017-05-30T04:16:07.280Z,18.24
2017-05-30T04:17:07.983Z,18.40
2017-05-30T04:18:07.704Z,18.51
2017-05-30T04:19:07.374Z,18.52
2017-05-30T04:20:07.111Z,18.44
2017-05-30T04:21:07.827Z,18.31
2017-05-30T04:22:07.420Z,18.48
2017-05-30T04:23:07.082Z,18.50
2017-05-30T04:24:07.704Z,18.49
2017-05-30T04:25:09.851Z,18.55
2017-05-30T04:26:07.784Z,18.57
2017-05-30T04:27:07.427Z,18.51
2017-05-30T04:28:07.044Z,18.61
2017-05-30T04:29:07.763Z,18.51
2017-05-30T04:30:07.446Z,18.55
2017-05-30T04:31:07.112Z,18.59
2017-05-30T04:32:07.698Z,18.65
2017-05-30T04:33:07.330Z,18.68
2017-05-30T04:34:08.006Z,18.65
2017-05-30T04:35:07.684Z,18.72
2017-05-30T04:36:07.356Z,18.67
2017-05-30T04:37:07.960Z,18.65
2017-05-30T04:38:07.656Z,18.76
2017-05-30T04:39:07.258Z,18.82
2017-05-30T04:40:07.916Z,18.63
2017-05-30T04:41:07.586Z,18.69
2017-05-30T04:42:07.204Z,18.82
2017-05-30T04:43:07.858Z,18.85
2017-05-30T04:44:07.634Z,19.05
2017-05-30T04:45:07.284Z,19.00
2017-05-30T04:46:07.991Z,19.10
2017-05-30T04:47:07.572Z,19.07
2017-05-30T04:48:07.256Z,19.28
2017-05-30T04:49:07.908Z,19.44
2017-05-30T04:50:07.556Z,19.51
2017-05-30T04:51:07.209Z,19.33
2017-05-30T04:52:07.867Z,19.33
2017-05-30T04:53:07.515Z,19.39
2017-05-30T04:54:07.154Z,19.46
2017-05-30T04:55:07.835Z,19.56
2017-05-30T04:56:07.456Z,19.56
2017-05-30T04:57:07.081Z,19.59
2017-05-30T04:58:07.669Z,19.69
2017-05-30T04:59:07.315Z,19.74
2017-05-30T05:00:08.004Z,19.74
2017-05-30T05:01:07.707Z,19.73
2017-05-30T05:02:07.315Z,19.75
2017-05-30T05:03:08.013Z,19.81
2017-05-30T05:04:07.626Z,19.83
2017-05-30T05:05:07.248Z,19.95
2017-05-30T05:06:08.027Z,20.07
2017-05-30T05:07:07.573Z,20.08
2017-05-30T05:08:07.310Z,20.09
2017-05-30T05:09:07.913Z,20.01
2017-05-30T05:10:07.694Z,20.08
2017-05-30T05:11:07.278Z,20.16
2017-05-30T05:12:07.890Z,20.29
2017-05-30T05:13:07.559Z,20.34
2017-05-30T05:14:07.279Z,20.35
2017-05-30T05:15:07.879Z,20.32
2017-05-30T05:16:07.602Z,20.37
2017-05-30T05:17:07.271Z,20.45
2017-05-30T05:18:08.030Z,20.47
2017-05-30T05:19:07.691Z,20.56
2017-05-30T05:20:07.338Z,20.65
2017-05-30T05:21:08.080Z,20.61
2017-05-30T05:22:07.642Z,20.70
2017-05-30T05:23:07.308Z,20.69
2017-05-30T05:24:07.931Z,20.73
2017-05-30T05:25:07.599Z,20.73
2017-05-30T05:26:07.285Z,20.79
2017-05-30T05:27:07.919Z,20.78
2017-05-30T05:28:07.566Z,20.82
2017-05-30T05:29:07.221Z,20.85
2017-05-30T05:30:07.835Z,20.83
2017-05-30T05:31:07.521Z,20.82
2017-05-30T05:32:07.139Z,20.96
2017-05-30T05:33:07.824Z,20.96
2017-05-30T05:34:07.449Z,20.92
2017-05-30T05:35:07.098Z,20.98
2017-05-30T05:36:07.819Z,21.12
2017-05-30T05:37:07.350Z,21.00
2017-05-30T05:38:07.974Z,21.03
2017-05-30T05:39:07.592Z,21.06
2017-05-30T05:40:07.295Z,21.14
2017-05-30T05:41:07.957Z,21.22
2017-05-30T05:42:07.630Z,21.22
2017-05-30T05:43:07.229Z,21.24
2017-05-30T05:44:07.898Z,21.20
2017-05-30T05:45:07.534Z,21.22
2017-05-30T05:46:07.255Z,21.27
2017-05-30T05:47:07.865Z,21.35
2017-05-30T05:48:07.511Z,21.35
2017-05-30T05:49:07.194Z,21.42
2017-05-30T05:50:07.855Z,21.40
2017-05-30T05:51:07.511Z,21.44
2017-05-30T05:52:07.124Z,21.38
2017-05-30T05:53:07.789Z,21.40
2017-05-30T05:54:07.463Z,21.46
2017-05-30T05:55:07.074Z,21.50
2017-05-30T05:56:07.765Z,21.54
2017-05-30T05:57:07.359Z,21.57
2017-05-30T05:58:07.077Z,21.62
2017-05-30T05:59:07.709Z,21.67
2017-05-30T06:00:07.358Z,21.64
2017-05-30T06:01:08.049Z,21.70
2017-05-30T06:02:07.676Z,21.70
2017-05-30T06:03:07.315Z,21.72
2017-05-30T06:04:07.970Z,21.74
2017-05-30T06:05:07.581Z,21.70
2017-05-30T06:06:07.313Z,21.75
2017-05-30T06:07:07.942Z,21.79
2017-05-30T06:08:07.663Z,21.79
2017-05-30T06:09:07.273Z,21.83
2017-05-30T06:10:07.905Z,21.84
2017-05-30T06:11:07.554Z,21.79
2017-05-30T06:12:07.250Z,21.87
2017-05-30T06:13:07.891Z,21.90
2017-05-30T06:14:07.560Z,21.94
2017-05-30T06:15:07.184Z,21.94
2017-05-30T06:16:07.866Z,21.97
2017-05-30T06:17:07.684Z,21.88
2017-05-30T06:18:07.327Z,21.92
2017-05-30T06:19:08.000Z,21.92
2017-05-30T06:20:07.642Z,21.92
2017-05-30T06:21:07.348Z,21.96
2017-05-30T06:22:07.974Z,22.04
2017-05-30T06:23:07.609Z,22.10
2017-05-30T06:24:07.247Z,22.09
2017-05-30T06:25:07.904Z,22.17
2017-05-30T06:26:07.538Z,22.16
2017-05-30T06:27:07.234Z,22.17
2017-05-30T06:28:07.875Z,22.15
2017-05-30T06:29:07.532Z,22.23
2017-05-30T06:30:07.179Z,22.25
2017-05-30T06:31:07.833Z,22.22
2017-05-30T06:32:07.538Z,22.21
2017-05-30T06:33:07.187Z,22.23
2017-05-30T06:34:07.809Z,22.21
2017-05-30T06:35:07.473Z,22.24
2017-05-30T06:36:07.274Z,22.28
2017-05-30T06:37:07.948Z,22.27
2017-05-30T06:38:07.546Z,22.29
2017-05-30T06:39:07.253Z,22.33
2017-05-30T06:40:07.836Z,22.32
2017-05-30T06:41:07.566Z,22.35
2017-05-30T06:42:07.227Z,22.39
2017-05-30T06:43:07.859Z,22.42
2017-05-30T06:44:07.464Z,22.46
2017-05-30T06:45:07.103Z,22.52
2017-05-30T06:46:07.733Z,22.54
2017-05-30T06:47:07.426Z,22.54
2017-05-30T06:48:08.008Z,22.52
2017-05-30T06:49:07.694Z,22.51
2017-05-30T06:50:07.349Z,22.51
2017-05-30T06:51:08.017Z,22.55
2017-05-30T06:52:07.645Z,22.52
2017-05-30T06:53:07.257Z,22.52
2017-05-30T06:54:07.921Z,22.59
2017-05-30T06:55:07.579Z,22.65
2017-05-30T06:56:07.246Z,22.67
2017-05-30T06:57:07.960Z,22.65
2017-05-30T06:58:07.498Z,22.67
2017-05-30T06:59:07.153Z,22.69
2017-05-30T07:00:07.814Z,22.65
2017-05-30T07:01:07.492Z,22.68
2017-05-30T07:02:07.185Z,22.69
2017-05-30T07:03:07.803Z,22.69
2017-05-30T07:04:07.435Z,22.66
2017-05-30T07:05:07.094Z,22.74
2017-05-30T07:06:07.835Z,22.80
2017-05-30T07:07:07.390Z,22.81
2017-05-30T07:08:07.022Z,22.82
2017-05-30T07:09:07.757Z,22.85
2017-05-30T07:10:07.379Z,22.84
2017-05-30T07:11:08.017Z,22.84
2017-05-30T07:12:07.258Z,22.86
2017-05-30T07:13:07.945Z,22.82
2017-05-30T07:14:07.524Z,22.86
2017-05-30T07:15:07.181Z,22.88
2017-05-30T07:16:07.813Z,22.89
2017-05-30T07:17:07.586Z,22.88
2017-05-30T07:18:07.298Z,22.89
2017-05-30T07:19:07.916Z,22.92
2017-05-30T07:20:07.562Z,22.94
2017-05-30T07:21:07.324Z,22.99
2017-05-30T07:22:07.898Z,23.03
2017-05-30T07:23:07.527Z,22.99
2017-05-30T07:24:07.291Z,23.02
2017-05-30T07:25:07.972Z,23.02
2017-05-30T07:26:07.599Z,23.03
2017-05-30T07:27:07.337Z,22.97
2017-05-30T07:28:07.930Z,22.99
2017-05-30T07:29:07.612Z,23.01
2017-05-30T07:30:07.250Z,23.02
2017-05-30T07:31:07.925Z,23.08
2017-05-30T07:32:07.581Z,23.07
2017-05-30T07:33:07.169Z,23.15
2017-05-30T07:34:07.825Z,23.22
2017-05-30T07:35:07.473Z,23.25
2017-05-30T07:36:07.311Z,23.33
2017-05-30T07:37:07.928Z,23.31
2017-05-30T07:38:07.574Z,23.34
2017-05-30T07:39:07.212Z,23.31
2017-05-30T07:40:07.835Z,23.29
2017-05-30T07:41:07.498Z,23.22
2017-05-30T07:42:07.203Z,23.19
2017-05-30T07:43:07.793Z,23.22
2017-05-30T07:44:07.499Z,23.26
2017-05-30T07:45:07.123Z,23.30
2017-05-30T07:46:07.812Z,23.38
2017-05-30T07:47:07.504Z,23.35
2017-05-30T07:48:07.123Z,23.34
2017-05-30T07:49:07.817Z,23.33
2017-05-30T07:50:07.503Z,23.34
2017-05-30T07:51:07.204Z,23.39
2017-05-30T07:52:07.809Z,23.44
2017-05-30T07:53:07.499Z,23.45
2017-05-30T07:54:07.064Z,23.47
2017-05-30T07:55:07.740Z,23.41
2017-05-30T07:56:07.360Z,23.37
2017-05-30T07:57:08.072Z,23.42
2017-05-30T07:58:07.648Z,23.51
2017-05-30T07:59:07.325Z,23.49
2017-05-30T08:00:07.174Z,23.48
2017-05-30T08:01:07.856Z,23.45
2017-05-30T08:02:07.479Z,23.46
2017-05-30T08:03:07.117Z,23.52
2017-05-30T08:04:07.770Z,23.44
2017-05-30T08:05:07.443Z,23.52
2017-05-30T08:06:07.106Z,23.54
2017-05-30T08:07:07.778Z,23.54
2017-05-30T08:08:07.378Z,23.53
2017-05-30T08:09:08.000Z,23.65
2017-05-30T08:10:07.080Z,23.65
2017-05-30T08:11:07.732Z,23.64
2017-05-30T08:12:07.404Z,23.65
2017-05-30T08:13:08.003Z,23.67
2017-05-30T08:14:07.678Z,23.69
2017-05-30T08:15:07.309Z,23.65
2017-05-30T08:16:07.956Z,23.68
2017-05-30T08:17:07.671Z,23.53
2017-05-30T08:18:07.354Z,23.43
2017-05-30T08:19:08.024Z,23.41
2017-05-30T08:20:07.642Z,23.63
2017-05-30T08:21:07.342Z,23.49
2017-05-30T08:22:07.995Z,23.43
2017-05-30T08:23:07.634Z,23.60
2017-05-30T08:24:07.227Z,23.56
2017-05-30T08:25:07.908Z,23.66
2017-05-30T08:26:07.570Z,23.54
2017-05-30T08:27:07.240Z,23.41
2017-05-30T08:28:07.844Z,23.51
2017-05-30T08:29:07.533Z,23.43
2017-05-30T08:30:07.176Z,23.42
2017-05-30T08:31:07.823Z,23.46
2017-05-30T08:32:07.518Z,23.47
2017-05-30T08:33:07.070Z,23.46
2017-05-30T08:34:07.770Z,23.42
2017-05-30T08:35:07.351Z,23.39
2017-05-30T08:36:08.085Z,23.35
2017-05-30T08:37:07.727Z,23.28
2017-05-30T08:38:07.323Z,23.38
2017-05-30T08:39:07.977Z,23.44
2017-05-30T08:40:07.629Z,23.41
2017-05-30T08:41:07.311Z,23.47
2017-05-30T08:42:07.989Z,23.62
2017-05-30T08:43:07.623Z,23.56
2017-05-30T08:44:07.421Z,23.46
2017-05-30T08:45:07.083Z,23.78
2017-05-30T08:46:07.730Z,23.44
2017-05-30T08:47:07.381Z,23.84
2017-05-30T08:48:08.021Z,23.80
2017-05-30T08:49:07.659Z,23.55
2017-05-30T08:50:07.279Z,23.43
2017-05-30T08:51:07.982Z,23.37
2017-05-30T08:52:07.670Z,23.42
2017-05-30T08:53:07.279Z,23.44
2017-05-30T08:54:07.946Z,23.41
2017-05-30T08:55:07.600Z,23.76
2017-05-30T08:56:07.236Z,23.91
2017-05-30T08:57:07.926Z,23.77
2017-05-30T08:58:07.530Z,23.73
2017-05-30T08:59:07.596Z,23.83
2017-05-30T09:00:07.352Z,23.68
2017-05-30T09:01:08.018Z,23.51
2017-05-30T09:02:07.696Z,23.52
2017-05-30T09:03:07.319Z,23.45
2017-05-30T09:04:07.953Z,23.47
2017-05-30T09:05:07.578Z,23.40
2017-05-30T09:06:07.278Z,23.53
2017-05-30T09:07:07.954Z,23.70
2017-05-30T09:08:07.685Z,23.62
2017-05-30T09:09:07.187Z,24.00
2017-05-30T09:10:07.326Z,23.83
2017-05-30T09:11:07.897Z,24.24
2017-05-30T09:12:07.579Z,24.15
2017-05-30T09:13:07.317Z,24.22
2017-05-30T09:14:07.633Z,24.23
2017-05-30T09:15:07.309Z,24.25
2017-05-30T09:16:07.946Z,24.05
2017-05-30T09:17:07.681Z,24.00
2017-05-30T09:18:07.385Z,24.08
2017-05-30T09:19:08.063Z,23.88
2017-05-30T09:20:07.682Z,23.88
2017-05-30T09:21:07.307Z,23.72
2017-05-30T09:22:08.017Z,23.77
2017-05-30T09:23:07.800Z,23.90
2017-05-30T09:24:07.293Z,23.93
2017-05-30T09:25:07.967Z,24.00
2017-05-30T09:26:07.585Z,24.11
2017-05-30T09:27:07.249Z,24.11
2017-05-30T09:28:07.940Z,24.15
2017-05-30T09:29:07.545Z,24.20
2017-05-30T09:30:14.779Z,24.23
2017-05-30T09:31:07.830Z,24.34
2017-05-30T09:32:17.594Z,24.35
2017-05-30T09:33:07.685Z,24.37
2017-05-30T09:34:07.800Z,24.53
2017-05-30T09:35:07.487Z,24.55
2017-05-30T09:36:07.158Z,24.56
2017-05-30T09:37:07.813Z,24.56
2017-05-30T09:38:07.457Z,24.55
2017-05-30T09:39:07.091Z,24.52
2017-05-30T09:40:07.763Z,24.64
2017-05-30T09:41:07.415Z,24.68
2017-05-30T09:42:07.024Z,24.74
2017-05-30T09:43:07.761Z,24.84
2017-05-30T09:44:07.338Z,24.78
2017-05-30T09:45:08.056Z,24.73
2017-05-30T09:46:07.641Z,24.72
2017-05-30T09:47:07.321Z,24.73
2017-05-30T09:48:15.528Z,24.72
2017-05-30T09:49:07.665Z,24.76
2017-05-30T09:50:07.301Z,24.78
2017-05-30T09:51:09.002Z,24.75
2017-05-30T09:52:17.695Z,24.70
2017-05-30T09:53:07.252Z,24.71
2017-05-30T09:54:07.890Z,24.74
2017-05-30T09:55:07.530Z,24.84
2017-05-30T09:56:07.187Z,24.87
2017-05-30T09:57:07.821Z,24.88
2017-05-30T09:58:07.518Z,24.91
2017-05-30T09:59:07.161Z,24.91
2017-05-30T10:00:07.853Z,24.87
2017-05-30T10:01:07.464Z,24.88
2017-05-30T10:02:07.090Z,24.87
2017-05-30T10:03:07.852Z,24.94
2017-05-30T10:04:07.383Z,24.95
2017-05-30T10:05:07.031Z,24.89
2017-05-30T10:06:07.702Z,24.81
2017-05-30T10:07:07.339Z,24.81
2017-05-30T10:08:08.040Z,24.77
2017-05-30T10:09:07.671Z,24.74
2017-05-30T10:10:08.435Z,24.80
2017-05-30T10:11:07.951Z,24.83
2017-05-30T10:12:07.644Z,24.81
2017-05-30T10:13:07.310Z,24.84
2017-05-30T10:14:07.888Z,24.82
2017-05-30T10:15:07.557Z,24.81
2017-05-30T10:16:07.247Z,24.84
2017-05-30T10:17:07.920Z,24.83
2017-05-30T10:18:07.786Z,24.85
2017-05-30T10:19:07.346Z,24.83
2017-05-30T10:20:08.062Z,24.79
2017-05-30T10:21:07.646Z,24.72
2017-05-30T10:22:07.297Z,24.71
2017-05-30T10:23:08.013Z,24.75
2017-05-30T10:24:07.624Z,24.80
2017-05-30T10:25:07.282Z,24.86
2017-05-30T10:26:07.942Z,24.99
2017-05-30T10:27:07.576Z,24.94
2017-05-30T10:28:07.283Z,24.96
2017-05-30T10:29:07.891Z,25.00
2017-05-30T10:30:07.554Z,25.03
2017-05-30T10:31:07.185Z,24.98
2017-05-30T10:32:07.841Z,25.02
2017-05-30T10:33:07.528Z,24.99
2017-05-30T10:34:07.174Z,24.95
2017-05-30T10:35:07.817Z,24.95
2017-05-30T10:36:08.531Z,25.05
2017-05-30T10:37:07.110Z,25.13
2017-05-30T10:38:07.791Z,25.17
2017-05-30T10:39:07.437Z,25.14
2017-05-30T10:40:07.098Z,25.12
2017-05-30T10:41:07.749Z,25.07
2017-05-30T10:42:07.409Z,25.07
2017-05-30T10:43:07.078Z,25.06
2017-05-30T10:44:07.839Z,25.07
2017-05-30T10:45:07.461Z,25.09
2017-05-30T10:46:07.140Z,25.06
2017-05-30T10:47:07.792Z,25.10
2017-05-30T10:48:08.550Z,25.12
2017-05-30T10:49:07.107Z,25.12
2017-05-30T10:50:07.726Z,25.13
2017-05-30T10:51:07.355Z,25.17
2017-05-30T10:52:07.982Z,25.21
2017-05-30T10:54:08.404Z,25.26
2017-05-30T10:55:08.047Z,25.23
2017-05-30T10:56:07.573Z,25.19
2017-05-30T10:57:07.256Z,25.18
2017-05-30T10:58:17.945Z,25.21
2017-05-30T10:59:07.563Z,25.28
2017-05-30T11:00:07.273Z,25.31
2017-05-30T11:01:07.917Z,25.32
2017-05-30T11:02:08.658Z,25.30
2017-05-30T11:03:07.211Z,25.36
2017-05-30T11:04:07.891Z,25.31
2017-05-30T11:05:07.570Z,25.32
2017-05-30T11:06:07.177Z,25.37
2017-05-30T11:07:07.816Z,25.34
2017-05-30T11:08:07.478Z,25.36
2017-05-30T11:09:07.115Z,25.39
2017-05-30T11:10:07.766Z,25.44
2017-05-30T11:11:07.406Z,25.49
2017-05-30T11:12:08.026Z,25.45
2017-05-30T11:13:07.666Z,25.41
2017-05-30T11:14:07.310Z,25.43
2017-05-30T11:15:08.032Z,25.41
2017-05-30T11:16:07.647Z,25.37
2017-05-30T11:17:07.377Z,25.39
2017-05-30T11:18:07.156Z,25.43
2017-05-30T11:19:07.822Z,25.38
2017-05-30T11:20:07.498Z,25.54
2017-05-30T11:21:07.091Z,25.60
2017-05-30T11:22:07.755Z,25.67
2017-05-30T11:23:07.385Z,25.59
2017-05-30T11:24:07.078Z,25.58
2017-05-30T11:25:07.739Z,25.53
2017-05-30T11:26:07.332Z,25.53
2017-05-30T11:27:07.983Z,25.54
2017-05-30T11:28:07.643Z,25.49
2017-05-30T11:29:07.297Z,25.50
2017-05-30T11:30:08.031Z,25.52
2017-05-30T11:31:07.638Z,25.52
2017-05-30T11:32:07.302Z,25.58
2017-05-30T11:33:08.010Z,25.58
2017-05-30T11:34:07.670Z,25.75
2017-05-30T11:35:07.395Z,25.88
2017-05-30T11:36:08.012Z,25.83
2017-05-30T11:37:07.665Z,25.80
2017-05-30T11:38:07.319Z,25.76
2017-05-30T11:39:07.982Z,25.66
2017-05-30T11:40:07.733Z,25.57
2017-05-30T11:41:07.340Z,25.55
2017-05-30T11:42:07.975Z,25.57
2017-05-30T11:43:07.620Z,25.58
2017-05-30T11:44:07.222Z,25.69
2017-05-30T11:45:07.902Z,25.75
2017-05-30T11:46:07.550Z,25.81
2017-05-30T11:47:07.183Z,25.87
2017-05-30T11:48:07.854Z,25.95
2017-05-30T11:49:07.464Z,25.95
2017-05-30T11:50:07.108Z,25.99
2017-05-30T11:51:07.776Z,25.99
2017-05-30T11:52:07.439Z,25.98
2017-05-30T11:53:07.072Z,25.95
2017-05-30T11:54:07.721Z,26.00
2017-05-30T11:55:07.408Z,25.93
2017-05-30T11:56:07.048Z,25.93
2017-05-30T11:57:07.710Z,26.04
2017-05-30T11:58:07.394Z,26.06
2017-05-30T11:59:07.034Z,26.11
2017-05-30T12:00:07.738Z,26.12
2017-05-30T12:01:08.446Z,26.08
2017-05-30T12:02:08.011Z,26.02
2017-05-30T12:03:07.627Z,26.09
2017-05-30T12:04:07.302Z,26.11
2017-05-30T12:05:07.985Z,26.24
2017-05-30T12:06:07.616Z,26.27
2017-05-30T12:07:07.326Z,26.33
2017-05-30T12:08:07.971Z,26.26
2017-05-30T12:09:07.622Z,26.30
2017-05-30T12:10:07.333Z,26.32
2017-05-30T12:11:07.927Z,26.38
2017-05-30T12:12:07.593Z,26.48
2017-05-30T12:13:07.203Z,26.44
2017-05-30T12:14:07.897Z,26.36
2017-05-30T12:15:08.581Z,26.45
2017-05-30T12:16:07.210Z,26.47
2017-05-30T12:17:07.978Z,26.49
2017-05-30T12:18:07.703Z,26.44
2017-05-30T12:19:07.353Z,26.42
2017-05-30T12:20:08.035Z,26.50
2017-05-30T12:21:07.639Z,26.62
2017-05-30T12:22:07.270Z,26.64
2017-05-30T12:23:07.912Z,26.60
2017-05-30T12:24:07.571Z,26.67
2017-05-30T12:25:07.247Z,26.67
2017-05-30T12:26:07.871Z,26.68
2017-05-30T12:27:07.564Z,26.65
2017-05-30T12:28:07.209Z,26.64
2017-05-30T12:29:07.877Z,26.67
2017-05-30T12:30:07.487Z,26.69
2017-05-30T12:31:07.153Z,26.71
2017-05-30T12:32:07.867Z,26.80
2017-05-30T12:33:07.493Z,26.83
2017-05-30T12:34:07.147Z,26.84
2017-05-30T12:35:07.806Z,26.80
2017-05-30T12:36:07.472Z,26.83
2017-05-30T12:37:07.186Z,26.87
2017-05-30T12:38:07.767Z,26.97
2017-05-30T12:39:07.424Z,26.97
2017-05-30T12:40:07.140Z,26.97
2017-05-30T12:41:07.755Z,26.94
2017-05-30T12:42:07.418Z,27.01
2017-05-30T12:43:07.086Z,27.13
2017-05-30T12:44:07.708Z,27.15
2017-05-30T12:45:07.370Z,27.01
2017-05-30T12:46:07.998Z,26.83
2017-05-30T12:47:07.677Z,26.91
2017-05-30T12:48:07.280Z,27.04
2017-05-30T12:49:07.920Z,27.19
2017-05-30T12:50:07.594Z,27.23
2017-05-30T12:51:07.221Z,27.26
2017-05-30T12:52:07.867Z,27.16
2017-05-30T12:53:07.471Z,27.10